Terminal Aerodrome Forecast
Issued by NWS Louisville, KY

Home | Current Version | Previous Version | Text Only | Print | Product List | Glossary On
Versions: 1 2 3 4 5 6 7 8 9 10 11 12 13 14 15 16 17
747
FTUS43 KLMK 281125
TAFBWG
TAF
KBWG 281125Z 2812/2912 VRB05KT P6SM VCSH SCT011 BKN030
      TEMPO 2812/2814 BKN011
     FM281400 22010G15KT P6SM SCT035 BKN120
     FM282300 25010G15KT P6SM VCTS SCT035CB BKN070
     FM290300 26005KT P6SM FEW025 SCT250=

USA.gov is the U.S. government's official web portal to all federal, state and local government web resources and services.